sensor_id;sensor_type;location;lat;lon;timestamp;temperature;humidity
63407;SHT31;49543;45.892;10.838;2023-02-28T08:44:12;8.45;66.38
63407;SHT31;49543;45.892;10.838;2023-02-28T10:08:12;10.20;61.42
63407;SHT31;49543;45.892;10.838;2023-02-28T10:10:40;10.32;61.43
63407;SHT31;49543;45.892;10.838;2023-02-28T10:13:10;10.42;61.16
63407;SHT31;49543;45.892;10.838;2023-02-28T10:15:38;10.42;61.10
63407;SHT31;49543;45.892;10.838;2023-02-28T10:18:04;10.42;59.82
63407;SHT31;49543;45.892;10.838;2023-02-28T10:20:31;10.55;60.65
63407;SHT31;49543;45.892;10.838;2023-02-28T10:25:33;10.83;59.41
63407;SHT31;49543;45.892;10.838;2023-02-28T10:28:07;11.01;58.98
63407;SHT31;49543;45.892;10.838;2023-02-28T10:30:34;11.01;59.77
63407;SHT31;49543;45.892;10.838;2023-02-28T10:33:00;10.99;59.15
63407;SHT31;49543;45.892;10.838;2023-02-28T10:35:26;10.86;58.41
63407;SHT31;49543;45.892;10.838;2023-02-28T10:37:56;10.96;59.07
63407;SHT31;49543;45.892;10.838;2023-02-28T10:43:00;11.24;58.62
63407;SHT31;49543;45.892;10.838;2023-02-28T10:45:26;11.39;57.66
63407;SHT31;49543;45.892;10.838;2023-02-28T10:47:56;11.39;57.77
63407;SHT31;49543;45.892;10.838;2023-02-28T10:50:29;11.45;57.64
63407;SHT31;49543;45.892;10.838;2023-02-28T10:53:13;11.44;58.19
63407;SHT31;49543;45.892;10.838;2023-02-28T10:55:39;11.65;57.18
63407;SHT31;49543;45.892;10.838;2023-02-28T11:01:00;11.78;57.64
63407;SHT31;49543;45.892;10.838;2023-02-28T11:03:29;11.90;58.24
63407;SHT31;49543;45.892;10.838;2023-02-28T11:05:55;11.62;57.97
63407;SHT31;49543;45.892;10.838;2023-02-28T11:08:20;11.69;58.02
63407;SHT31;49543;45.892;10.838;2023-02-28T11:10:55;11.87;56.89
63407;SHT31;49543;45.892;10.838;2023-02-28T11:13:24;11.87;57.64
63407;SHT31;49543;45.892;10.838;2023-02-28T11:15:51;11.79;59.14
63407;SHT31;49543;45.892;10.838;2023-02-28T11:18:30;11.87;59.06
63407;SHT31;49543;45.892;10.838;2023-02-28T11:20:56;11.73;58.86
63407;SHT31;49543;45.892;10.838;2023-02-28T11:23:23;12.04;59.24
63407;SHT31;49543;45.892;10.838;2023-02-28T11:25:51;12.16;58.53
63407;SHT31;49543;45.892;10.838;2023-02-28T11:28:34;12.37;57.67
63407;SHT31;49543;45.892;10.838;2023-02-28T11:33:30;12.21;57.37
63407;SHT31;49543;45.892;10.838;2023-02-28T11:35:57;12.55;57.82
63407;SHT31;49543;45.892;10.838;2023-02-28T11:38:24;12.59;56.67
63407;SHT31;49543;45.892;10.838;2023-02-28T11:48:53;12.55;56.91
63407;SHT31;49543;45.892;10.838;2023-02-28T11:51:21;12.55;56.96
63407;SHT31;49543;45.892;10.838;2023-02-28T12:12:49;12.86;56.34
63407;SHT31;49543;45.892;10.838;2023-02-28T12:28:42;12.99;55.88
63407;SHT31;49543;45.892;10.838;2023-02-28T12:31:13;13.13;56.89
63407;SHT31;49543;45.892;10.838;2023-02-28T12:33:40;13.30;55.53
63407;SHT31;49543;45.892;10.838;2023-02-28T12:36:10;13.47;53.74
63407;SHT31;49543;45.892;10.838;2023-02-28T12:38:41;13.74;54.99
63407;SHT31;49543;45.892;10.838;2023-02-28T12:43:35;14.06;53.09
63407;SHT31;49543;45.892;10.838;2023-02-28T12:46:13;14.29;53.64
63407;SHT31;49543;45.892;10.838;2023-02-28T17:43:00;9.08;64.60
63407;SHT31;49543;45.892;10.838;2023-02-28T17:45:26;9.08;65.17
63407;SHT31;49543;45.892;10.838;2023-02-28T17:47:51;9.03;65.51
63407;SHT31;49543;45.892;10.838;2023-02-28T17:50:19;8.99;65.05
63407;SHT31;49543;45.892;10.838;2023-02-28T17:52:44;9.03;65.20
63407;SHT31;49543;45.892;10.838;2023-02-28T17:55:10;9.00;65.08
63407;SHT31;49543;45.892;10.838;2023-02-28T17:57:35;8.96;65.42
63407;SHT31;49543;45.892;10.838;2023-02-28T18:00:00;8.96;66.29
